Strona główna
METAR-TAF:

METAR-TAF

Lotnisko :

Lannion, Francja

Szerokość geograficzna: 48-45N, Długość geograficzna: 003-28W, wysokość: 89 m

Aktualna obserwacja pogody

Raport powstał 27 minut temu, godzina 22:30 UTC
Wiatr 11 kt od południowy zachód
Temperatura 5°C
Wilgotność 87%
Ciśnienie 991 hPa
Widzialność 10 km lub więcej

METAR: LFRO 132230Z AUTO 22011KT 9999 FEW026/// BKN035/// BKN048/// ///CB 05/03 Q0991

czas: 23:57 (22:57 UTC)


TAF: brakujący

Obserwacja i prognoza pogody dla ponad 4000 lotnisk (raport METAR i TAF).

Dostępne stacje oznaczono żółtymi i czerwonymi punktami na mapie.

Najedź kursorem aby zobaczyć nazwę stacji.

Kliknij aby zobaczyć obserwacje i prognozy pogody.

Aby zmienić mapę: kliknij na zielony przycisk z czarnym krzyżykiem, aby powiększyć; na zielony przycisk z myślnikiem, aby pomniejszyć; na zielone strzałki, aby przejść do map sąsiednich.


METAR-TAF: